Time;durP1;ratioP1;P1;durP2;ratioP2;P2;SDS_P1;SDS_P2;PMS_P1;PMS_P2;Temp;Humidity;BMP_temperature;BMP_pressure;BME280_temperature;BME280_humidity;BME280_pressure;Samples;Min_cycle;Max_cycle;Signal;HPM_P1;HPM_P2
2024/04/10 00:02:21;;;;;;;15.90;2.25;;;10.00;99.90;;;;;;5368816;26;20289;-68
2024/04/10 00:04:51;;;;;;;14.85;2.38;;;10.10;99.90;;;;;;5367712;26;20295;-67
2024/04/10 00:07:17;;;;;;;8.20;1.70;;;10.00;99.90;;;;;;5366153;26;20957;-67
2024/04/10 00:09:43;;;;;;;7.10;1.60;;;10.10;99.90;;;;;;5368265;26;20245;-67
2024/04/10 00:12:09;;;;;;;9.73;2.00;;;10.10;99.90;;;;;;5368013;26;20233;-69
2024/04/10 00:14:38;;;;;;;14.55;2.80;;;10.00;99.90;;;;;;5364586;26;20242;-68
2024/04/10 00:17:04;;;;;;;9.98;2.00;;;10.10;99.90;;;;;;5368514;26;20241;-68
2024/04/10 00:19:30;;;;;;;15.63;2.35;;;10.10;99.90;;;;;;5367005;26;20284;-68
2024/04/10 00:21:56;;;;;;;8.95;2.15;;;10.10;99.90;;;;;;5368070;26;20630;-67
2024/04/10 00:24:22;;;;;;;12.98;2.50;;;10.10;99.90;;;;;;5367511;26;20289;-68
2024/04/10 00:26:50;;;;;;;9.15;2.03;;;10.10;99.90;;;;;;5369157;26;20300;-68
2024/04/10 00:29:16;;;;;;;12.80;2.50;;;10.10;99.90;;;;;;5367013;26;20241;-67
2024/04/10 00:31:42;;;;;;;11.57;2.70;;;10.10;99.90;;;;;;5367930;26;20230;-68
2024/04/10 00:34:08;;;;;;;8.85;2.20;;;10.10;99.90;;;;;;5366460;26;20280;-68
2024/04/10 00:36:33;;;;;;;10.50;2.30;;;10.10;99.90;;;;;;5367918;26;20280;-68
2024/04/10 00:38:59;;;;;;;8.55;1.85;;;10.10;99.90;;;;;;5366049;26;20280;-67
2024/04/10 00:41:25;;;;;;;16.95;2.35;;;10.10;99.90;;;;;;5367248;26;20388;-67
2024/04/10 00:43:51;;;;;;;7.80;2.00;;;10.20;99.90;;;;;;5366408;26;20233;-67
2024/04/10 00:46:23;;;;;;;8.73;2.45;;;10.10;99.90;;;;;;5366681;26;20280;-67
2024/04/10 00:48:50;;;;;;;13.13;2.45;;;10.20;99.90;;;;;;5367437;26;20591;-67
2024/04/10 00:51:25;;;;;;;8.75;1.90;;;10.20;99.90;;;;;;5367812;26;20237;-68
2024/04/10 00:53:52;;;;;;;9.40;2.17;;;10.20;99.90;;;;;;5367175;26;20752;-68
2024/04/10 00:56:18;;;;;;;10.77;2.13;;;10.20;99.90;;;;;;5367240;26;20246;-68
2024/04/10 00:58:44;;;;;;;8.18;2.00;;;10.30;99.90;;;;;;5364709;26;20241;-68
2024/04/10 01:01:12;;;;;;;10.45;2.35;;;10.30;99.90;;;;;;5367897;26;20253;-66
2024/04/10 01:03:38;;;;;;;8.93;1.92;;;10.20;99.90;;;;;;5363777;26;20238;-68
2024/04/10 01:06:06;;;;;;;11.90;2.70;;;10.30;99.90;;;;;;5365465;26;20616;-67
2024/04/10 01:08:35;;;;;;;10.15;2.00;;;10.30;99.90;;;;;;5366359;26;21061;-67
2024/04/10 01:11:03;;;;;;;10.80;2.33;;;10.30;99.90;;;;;;5366467;26;20229;-68
2024/04/10 01:13:29;;;;;;;12.93;2.67;;;10.30;99.90;;;;;;5365965;26;20811;-68
2024/04/10 01:15:55;;;;;;;7.60;1.73;;;10.40;99.90;;;;;;5366691;26;20279;-68
2024/04/10 01:18:22;;;;;;;10.10;1.92;;;10.30;99.90;;;;;;5369115;26;20296;-68
2024/04/10 01:20:50;;;;;;;11.40;2.17;;;10.40;99.90;;;;;;5370668;26;20347;-69
2024/04/10 01:23:17;;;;;;;9.80;1.95;;;10.40;99.90;;;;;;5367875;26;20237;-68
2024/04/10 01:25:43;;;;;;;8.60;1.80;;;10.30;99.90;;;;;;5369298;26;20275;-69
2024/04/10 01:28:09;;;;;;;5.72;1.60;;;10.40;99.90;;;;;;5370705;26;20233;-69
2024/04/10 01:30:35;;;;;;;7.13;1.60;;;10.30;99.90;;;;;;5370320;26;20579;-69
2024/04/10 01:33:01;;;;;;;4.30;1.63;;;10.30;99.90;;;;;;5369030;26;20229;-68
2024/04/10 01:35:27;;;;;;;4.80;1.20;;;10.30;99.90;;;;;;5369997;26;20671;-68
2024/04/10 01:37:52;;;;;;;5.90;1.45;;;10.20;99.90;;;;;;5370051;26;20245;-67
2024/04/10 01:40:18;;;;;;;6.82;1.38;;;10.20;99.90;;;;;;5370247;26;20276;-67
2024/04/10 01:42:45;;;;;;;7.30;1.30;;;10.10;99.90;;;;;;5366325;26;20245;-68
2024/04/10 01:45:11;;;;;;;6.35;1.48;;;10.00;99.90;;;;;;5369160;26;20276;-67
2024/04/10 01:47:38;;;;;;;3.95;0.85;;;10.00;99.90;;;;;;5370608;26;20296;-69
2024/04/10 01:50:05;;;;;;;10.85;1.48;;;10.10;99.90;;;;;;5370218;26;20237;-68
2024/04/10 01:52:31;;;;;;;7.50;1.23;;;10.00;99.90;;;;;;5370364;26;20671;-67
2024/04/10 01:54:57;;;;;;;2.88;1.05;;;10.00;99.90;;;;;;5370096;26;20325;-69
2024/04/10 01:57:23;;;;;;;5.57;1.35;;;10.00;99.90;;;;;;5367909;26;20233;-67
2024/04/10 01:59:49;;;;;;;3.53;0.82;;;10.10;99.90;;;;;;5369885;26;20230;-67
2024/04/10 02:02:14;;;;;;;5.45;1.10;;;10.10;99.90;;;;;;5366419;26;20264;-68
2024/04/10 02:04:40;;;;;;;6.72;1.27;;;10.10;99.90;;;;;;5369886;26;20241;-67
2024/04/10 02:07:06;;;;;;;7.22;1.30;;;10.10;99.90;;;;;;5368172;26;20667;-68
2024/04/10 02:09:32;;;;;;;9.23;1.27;;;10.10;99.90;;;;;;5370182;26;20285;-68
2024/04/10 02:11:59;;;;;;;5.47;0.82;;;10.20;99.90;;;;;;5367792;26;20740;-68
2024/04/10 02:14:26;;;;;;;3.00;0.90;;;10.20;99.90;;;;;;5369791;26;20257;-68
2024/04/10 02:16:51;;;;;;;10.18;1.40;;;10.20;99.90;;;;;;5369379;26;20296;-68
2024/04/10 02:19:17;;;;;;;4.95;0.90;;;10.20;99.90;;;;;;5369699;26;20632;-68
2024/04/10 02:21:43;;;;;;;8.30;1.00;;;10.20;99.90;;;;;;5369489;26;20312;-68
2024/04/10 02:24:09;;;;;;;6.20;1.10;;;10.10;99.90;;;;;;5370033;26;20565;-68
2024/04/10 02:26:35;;;;;;;6.20;1.17;;;10.10;99.90;;;;;;5369552;26;20238;-67
2024/04/10 02:29:01;;;;;;;7.68;1.20;;;10.00;99.90;;;;;;5368848;26;20230;-68
2024/04/10 02:31:26;;;;;;;5.78;1.08;;;10.00;99.90;;;;;;5369440;26;20229;-67
2024/04/10 02:33:53;;;;;;;7.28;1.40;;;10.00;99.90;;;;;;5367626;26;20729;-67
2024/04/10 02:36:18;;;;;;;9.05;1.40;;;10.00;99.90;;;;;;5369580;26;20238;-67
2024/04/10 02:38:44;;;;;;;9.05;1.45;;;9.90;99.90;;;;;;5368595;26;20241;-67
2024/04/10 02:41:10;;;;;;;9.43;1.20;;;9.90;99.90;;;;;;5369317;26;20309;-67
2024/04/10 02:43:36;;;;;;;10.93;1.40;;;9.90;99.90;;;;;;5367969;26;20705;-68
2024/04/10 02:46:07;;;;;;;7.78;1.50;;;9.90;99.90;;;;;;5369169;26;20233;-68
2024/04/10 02:48:33;;;;;;;10.65;1.40;;;9.90;99.90;;;;;;5369228;26;20705;-68
2024/04/10 02:50:58;;;;;;;7.78;1.48;;;9.90;99.90;;;;;;5337790;26;20356;-68
2024/04/10 02:53:24;;;;;;;6.10;1.58;;;9.90;99.90;;;;;;5368732;26;20230;-69
2024/04/10 02:55:53;;;;;;;5.43;1.30;;;9.90;99.90;;;;;;5369576;26;20225;-68
2024/04/10 02:58:20;;;;;;;9.15;1.42;;;9.90;99.90;;;;;;5368880;26;20234;-68
2024/04/10 03:00:50;;;;;;;5.00;1.30;;;10.00;99.90;;;;;;5367759;26;20234;-68
2024/04/10 03:03:15;;;;;;;7.95;1.50;;;9.90;99.90;;;;;;5369329;26;20234;-68
2024/04/10 03:05:42;;;;;;;7.30;1.50;;;9.90;99.90;;;;;;5369024;26;23690;-68
2024/04/10 03:08:10;;;;;;;8.05;1.67;;;9.90;99.90;;;;;;5367865;26;20880;-68
2024/04/10 03:10:36;;;;;;;8.70;1.67;;;9.90;99.90;;;;;;5368762;26;20241;-68
2024/04/10 03:13:02;;;;;;;8.07;1.45;;;9.90;99.90;;;;;;5367333;26;20234;-67
2024/04/10 03:15:29;;;;;;;11.93;1.83;;;9.90;99.90;;;;;;5369428;26;20309;-68
2024/04/10 03:17:54;;;;;;;5.85;1.30;;;9.90;99.90;;;;;;5369071;26;20275;-67
2024/04/10 03:20:21;;;;;;;7.93;1.77;;;9.90;99.90;;;;;;5361822;26;20225;-67
2024/04/10 03:22:47;;;;;;;11.93;1.90;;;9.90;99.90;;;;;;5366916;26;20241;-68
2024/04/10 03:25:13;;;;;;;9.35;1.80;;;9.90;99.90;;;;;;5368594;26;20326;-68
2024/04/10 03:27:43;;;;;;;7.20;1.83;;;9.90;99.90;;;;;;5368234;26;20233;-68
2024/04/10 03:30:10;;;;;;;11.15;1.70;;;9.90;99.90;;;;;;5367984;26;20272;-66
2024/04/10 03:32:38;;;;;;;8.38;1.92;;;9.90;99.90;;;;;;5363770;26;20631;-68
2024/04/10 03:35:04;;;;;;;10.85;1.65;;;9.90;99.90;;;;;;5368388;26;20238;-69
2024/04/10 03:37:31;;;;;;;12.40;2.47;;;9.90;99.90;;;;;;5368789;26;20629;-67
2024/04/10 03:39:56;;;;;;;10.30;2.13;;;10.00;99.90;;;;;;5367253;26;20905;-68
2024/04/10 03:42:25;;;;;;;7.47;1.90;;;9.90;99.90;;;;;;5368435;26;20276;-67
2024/04/10 03:44:50;;;;;;;10.63;2.10;;;10.00;99.90;;;;;;5368085;26;20305;-67
2024/04/10 03:47:16;;;;;;;10.32;2.67;;;10.00;99.90;;;;;;5365648;26;20342;-67
2024/04/10 03:49:42;;;;;;;15.70;2.08;;;10.00;99.90;;;;;;5368497;26;20230;-68
2024/04/10 03:52:09;;;;;;;9.10;2.10;;;10.00;99.90;;;;;;5335578;26;20237;-68
2024/04/10 03:54:36;;;;;;;10.88;1.92;;;10.00;99.90;;;;;;5366465;26;20246;-68
2024/04/10 03:57:02;;;;;;;8.93;1.80;;;10.00;99.90;;;;;;5367731;26;20351;-66
2024/04/10 03:59:27;;;;;;;16.42;2.67;;;10.00;99.90;;;;;;5368234;26;20304;-68
2024/04/10 04:01:55;;;;;;;12.07;1.90;;;10.00;99.90;;;;;;5368381;26;20241;-68
2024/04/10 04:04:21;;;;;;;16.35;2.30;;;10.00;99.90;;;;;;5368938;26;20960;-68
2024/04/10 04:06:47;;;;;;;15.70;2.75;;;10.00;99.90;;;;;;5367633;26;20233;-68
2024/04/10 04:09:12;;;;;;;14.30;2.55;;;9.90;99.90;;;;;;5367306;26;20229;-69
2024/04/10 04:11:38;;;;;;;15.77;2.47;;;9.90;99.90;;;;;;5366569;26;20234;-68
2024/04/10 04:14:04;;;;;;;15.40;2.50;;;9.80;99.90;;;;;;5367609;26;20238;-68
2024/04/10 04:16:30;;;;;;;15.38;2.13;;;9.80;99.90;;;;;;5367929;26;20355;-68
2024/04/10 04:18:56;;;;;;;8.52;2.05;;;9.70;99.90;;;;;;5367581;26;20272;-68
2024/04/10 04:21:23;;;;;;;15.13;2.90;;;9.70;99.90;;;;;;5367756;26;20718;-68
2024/04/10 04:23:48;;;;;;;14.90;2.33;;;9.70;99.90;;;;;;5367704;26;20717;-67
2024/04/10 04:26:15;;;;;;;15.85;2.72;;;9.60;99.90;;;;;;5367977;26;20233;-68
2024/04/10 04:28:41;;;;;;;12.18;2.30;;;9.60;99.90;;;;;;5365315;26;22374;-67
2024/04/10 04:31:06;;;;;;;15.80;2.35;;;9.60;99.90;;;;;;5367845;26;20234;-66
2024/04/10 04:33:34;;;;;;;20.45;2.58;;;9.60;99.90;;;;;;5365721;26;20268;-67
2024/04/10 04:36:00;;;;;;;15.07;2.33;;;9.60;99.90;;;;;;5366205;26;21188;-68
2024/04/10 04:38:31;;;;;;;12.50;2.60;;;9.60;99.90;;;;;;5367544;26;20237;-68
2024/04/10 04:40:57;;;;;;;13.63;2.63;;;9.60;99.90;;;;;;5367430;26;20651;-68
2024/04/10 04:43:23;;;;;;;17.17;2.70;;;9.60;99.90;;;;;;5366339;26;20287;-69
2024/04/10 04:45:49;;;;;;;17.65;2.78;;;9.60;99.90;;;;;;5364875;26;20261;-67
2024/04/10 04:48:15;;;;;;;14.70;2.70;;;9.60;99.90;;;;;;5366276;26;20829;-66
2024/04/10 04:50:41;;;;;;;12.63;2.97;;;9.70;99.90;;;;;;5366544;26;20237;-66
2024/04/10 04:53:11;;;;;;;15.48;2.60;;;9.70;99.90;;;;;;5365737;26;20245;-67
2024/04/10 04:55:38;;;;;;;16.27;2.83;;;9.70;99.90;;;;;;5366340;26;20665;-67
2024/04/10 04:58:04;;;;;;;16.65;2.78;;;9.70;99.90;;;;;;5367969;26;20780;-68
2024/04/10 05:00:31;;;;;;;17.20;3.10;;;9.80;99.90;;;;;;5368158;26;20230;-68
2024/04/10 05:02:58;;;;;;;14.95;2.80;;;9.80;99.90;;;;;;5366283;26;20371;-66
2024/04/10 05:05:25;;;;;;;16.95;2.75;;;9.80;99.90;;;;;;5365861;26;20234;-66
2024/04/10 05:07:51;;;;;;;14.93;2.90;;;9.80;99.90;;;;;;5364579;26;20292;-67
2024/04/10 05:10:17;;;;;;;14.10;2.90;;;9.80;99.90;;;;;;5368138;26;20288;-68
2024/04/10 05:12:43;;;;;;;13.38;2.70;;;9.90;99.90;;;;;;5365497;26;20234;-68
2024/04/10 05:15:15;;;;;;;16.50;2.95;;;9.90;99.90;;;;;;5365053;26;20362;-68
2024/04/10 05:17:42;;;;;;;17.80;3.20;;;9.90;99.90;;;;;;5363645;26;20249;-67
2024/04/10 05:20:10;;;;;;;19.02;3.10;;;10.00;99.90;;;;;;5367537;26;20241;-67
2024/04/10 05:22:37;;;;;;;16.23;3.05;;;10.00;99.90;;;;;;5366711;26;21058;-67
2024/04/10 05:25:05;;;;;;;16.08;3.05;;;10.00;99.90;;;;;;5366493;26;20230;-68
2024/04/10 05:27:32;;;;;;;16.30;3.30;;;10.00;99.90;;;;;;5367037;26;20319;-69
2024/04/10 05:29:59;;;;;;;19.65;3.50;;;10.00;99.90;;;;;;5366076;26;20595;-68
2024/04/10 05:32:29;;;;;;;14.00;3.08;;;10.00;99.90;;;;;;5366106;26;20245;-69
2024/04/10 05:34:55;;;;;;;17.65;3.40;;;10.00;99.90;;;;;;5366641;26;20229;-67
2024/04/10 05:37:22;;;;;;;16.55;3.72;;;10.00;99.90;;;;;;5363797;26;20241;-66
2024/04/10 05:39:49;;;;;;;18.00;3.30;;;10.00;99.90;;;;;;5365582;26;20273;-67
2024/04/10 05:42:16;;;;;;;19.60;4.00;;;10.00;99.90;;;;;;5366229;26;20276;-67
2024/04/10 05:44:43;;;;;;;18.85;3.50;;;10.00;99.90;;;;;;5363612;26;20280;-68
2024/04/10 05:47:09;;;;;;;15.20;3.70;;;10.00;99.90;;;;;;5365503;26;20250;-68
2024/04/10 05:49:35;;;;;;;19.98;4.00;;;10.10;99.90;;;;;;5363807;26;20230;-67
2024/04/10 05:52:00;;;;;;;14.30;3.58;;;10.10;99.90;;;;;;5365169;26;20318;-68
2024/04/10 05:54:27;;;;;;;16.90;4.10;;;10.10;99.90;;;;;;5363453;26;20268;-66
2024/04/10 05:56:52;;;;;;;18.08;3.45;;;10.20;99.90;;;;;;5364020;26;20234;-67
2024/04/10 05:59:18;;;;;;;17.30;4.10;;;10.20;99.90;;;;;;5366104;26;20822;-66
2024/04/10 06:01:44;;;;;;;13.45;3.17;;;10.20;99.90;;;;;;5365230;26;20278;-65
2024/04/10 06:04:09;;;;;;;15.35;3.17;;;10.20;99.90;;;;;;5362495;26;20264;-67
2024/04/10 06:06:35;;;;;;;13.55;3.10;;;10.30;99.90;;;;;;5367834;26;20728;-68
2024/04/10 06:09:01;;;;;;;20.40;2.95;;;10.40;99.90;;;;;;5367950;26;20237;-69
2024/04/10 06:11:27;;;;;;;15.75;2.97;;;10.40;99.90;;;;;;5368308;26;20684;-66
2024/04/10 06:13:57;;;;;;;21.90;7.40;;;10.40;99.90;;;;;;5368882;26;20288;-67
2024/04/10 06:16:23;;;;;;;21.00;3.70;;;10.50;99.90;;;;;;5368597;26;20345;-66
2024/04/10 06:18:49;;;;;;;22.67;3.70;;;10.50;99.90;;;;;;5368759;26;20260;-66
2024/04/10 06:21:15;;;;;;;20.35;4.07;;;10.60;99.90;;;;;;5366513;26;20708;-67
2024/04/10 06:23:42;;;;;;;17.80;3.55;;;10.70;99.90;;;;;;5367054;26;20237;-68
2024/04/10 06:26:08;;;;;;;15.23;3.25;;;10.60;99.90;;;;;;5368478;26;20366;-67
2024/04/10 06:28:34;;;;;;;16.27;4.05;;;10.70;99.90;;;;;;5367397;26;20257;-67
2024/04/10 06:31:01;;;;;;;19.42;3.47;;;10.80;99.90;;;;;;5366250;26;20237;-69
2024/04/10 06:33:27;;;;;;;20.50;4.20;;;10.70;99.90;;;;;;5367333;26;20280;-67
2024/04/10 06:35:57;;;;;;;15.95;3.85;;;10.70;99.90;;;;;;5365226;26;20246;-68
2024/04/10 06:38:23;;;;;;;20.65;4.13;;;10.70;99.90;;;;;;5368346;26;20241;-67
2024/04/10 06:41:00;;;;;;;17.02;4.05;;;10.70;99.90;;;;;;5368158;26;20289;-68
2024/04/10 06:43:26;;;;;;;15.57;4.00;;;10.70;99.90;;;;;;5363508;26;20283;-67
2024/04/10 06:46:03;;;;;;;19.88;4.43;;;10.70;99.90;;;;;;5363472;26;20574;-68
2024/04/10 06:48:29;;;;;;;46.78;10.30;;;10.70;99.90;;;;;;5367416;26;20275;-66
2024/04/10 06:50:58;;;;;;;17.50;5.03;;;10.70;99.90;;;;;;5367962;26;20241;-67
2024/04/10 06:53:24;;;;;;;20.30;4.95;;;10.80;99.90;;;;;;5367254;26;20245;-68
2024/04/10 06:56:01;;;;;;;21.70;5.20;;;10.80;99.90;;;;;;5367224;26;20710;-67
2024/04/10 06:58:28;;;;;;;20.60;4.53;;;10.80;99.90;;;;;;5364474;26;20268;-68
2024/04/10 07:01:04;;;;;;;21.63;6.18;;;10.80;99.90;;;;;;5365555;26;20238;-68
2024/04/10 07:03:39;;;;;;;17.88;5.22;;;10.70;99.90;;;;;;5367498;26;20249;-67
2024/04/10 07:06:05;;;;;;;21.27;5.28;;;10.80;99.90;;;;;;5365573;26;20279;-68
2024/04/10 07:08:36;;;;;;;29.52;5.75;;;10.80;99.90;;;;;;5366659;26;20317;-68
2024/04/10 07:11:09;;;;;;;25.50;5.60;;;10.80;99.90;;;;;;5365250;26;20233;-69
2024/04/10 07:13:38;;;;;;;27.23;5.72;;;10.90;99.90;;;;;;5366127;26;20317;-76
2024/04/10 07:16:04;;;;;;;28.33;5.53;;;10.90;99.90;;;;;;5367009;26;20745;-66
2024/04/10 07:18:32;;;;;;;23.42;5.95;;;11.00;99.90;;;;;;5366182;26;20241;-68
2024/04/10 07:21:06;;;;;;;19.05;5.68;;;11.00;99.90;;;;;;5367192;26;20288;-68
2024/04/10 07:23:33;;;;;;;24.30;5.65;;;11.10;99.90;;;;;;5367930;26;20284;-67
2024/04/10 07:26:25;;;;;;;18.65;5.10;;;11.10;99.90;;;;;;5363820;26;20301;-68
2024/04/10 07:28:54;;;;;;;23.35;5.70;;;11.10;99.90;;;;;;5362876;26;20245;-66
2024/04/10 07:31:33;;;;;;;20.33;5.30;;;11.30;99.90;;;;;;5366696;26;20238;-70
2024/04/10 07:34:00;;;;;;;17.60;5.53;;;11.30;99.90;;;;;;5368389;26;20276;-66
2024/04/10 07:36:26;;;;;;;25.70;5.35;;;11.40;99.90;;;;;;5364146;26;20280;-66
2024/04/10 07:38:56;;;;;;;25.48;5.63;;;11.50;99.90;;;;;;5366491;26;20241;-68
2024/04/10 07:41:23;;;;;;;20.63;5.55;;;11.60;99.90;;;;;;5367207;26;20229;-68
2024/04/10 07:43:49;;;;;;;17.33;5.53;;;11.70;99.90;;;;;;5367286;26;20291;-65
2024/04/10 07:46:17;;;;;;;22.38;5.80;;;11.80;99.90;;;;;;5366125;26;20862;-69
2024/04/10 07:48:45;;;;;;;20.23;5.20;;;11.90;99.90;;;;;;5367456;26;20233;-68
2024/04/10 07:51:15;;;;;;;19.17;5.07;;;12.10;99.90;;;;;;5368253;26;20276;-68
2024/04/10 07:53:41;;;;;;;23.42;5.20;;;12.20;99.90;;;;;;5366739;26;20246;-66
2024/04/10 07:56:08;;;;;;;16.77;5.00;;;12.20;99.90;;;;;;5367540;26;20229;-68
2024/04/10 07:58:35;;;;;;;21.48;4.82;;;12.40;99.90;;;;;;5365612;26;20244;-68
2024/04/10 08:01:02;;;;;;;22.52;4.78;;;12.40;99.90;;;;;;5367682;26;20288;-68
2024/04/10 08:03:29;;;;;;;21.00;5.10;;;12.40;99.90;;;;;;5367861;26;20751;-68
2024/04/10 08:06:00;;;;;;;21.20;5.32;;;12.40;99.90;;;;;;5366201;26;20268;-68
2024/04/10 08:08:27;;;;;;;20.40;5.40;;;12.40;99.90;;;;;;5366807;26;20237;-66
2024/04/10 08:10:58;;;;;;;20.13;5.28;;;12.40;99.90;;;;;;5358277;26;20234;-68
2024/04/10 08:13:24;;;;;;;20.25;5.43;;;12.40;99.90;;;;;;5366117;26;20270;-67
2024/04/10 08:16:06;;;;;;;23.20;5.22;;;12.30;99.90;;;;;;5365056;26;20261;-67
2024/04/10 08:18:37;;;;;;;21.20;4.97;;;12.30;99.90;;;;;;5366257;26;21365;-68
2024/04/10 08:21:05;;;;;;;14.55;4.90;;;12.20;99.90;;;;;;5367759;26;20356;-68
2024/04/10 08:23:34;;;;;;;17.65;5.22;;;12.10;99.90;;;;;;5367227;26;20245;-67
2024/04/10 08:26:08;;;;;;;19.45;4.60;;;12.00;99.90;;;;;;5366069;26;20230;-68
2024/04/10 08:28:34;;;;;;;20.77;4.80;;;12.00;99.90;;;;;;5366744;26;20236;-69
2024/04/10 08:31:00;;;;;;;20.05;5.30;;;12.00;99.90;;;;;;5367556;26;20587;-69
2024/04/10 08:33:28;;;;;;;16.27;4.53;;;12.00;99.90;;;;;;5336042;26;20322;-68
2024/04/10 08:35:59;;;;;;;20.50;4.60;;;12.10;99.90;;;;;;5363859;26;20225;-67
2024/04/10 08:38:26;;;;;;;18.63;4.50;;;12.10;99.90;;;;;;5364449;26;20233;-68
2024/04/10 08:40:53;;;;;;;19.13;4.40;;;12.10;99.90;;;;;;5366232;26;20229;-67
2024/04/10 08:43:20;;;;;;;16.15;4.32;;;12.10;99.90;;;;;;5366767;26;20233;-68
2024/04/10 08:47:16;;;;;;;17.23;4.82;;;12.20;99.90;;;;;;5385453;26;20676;-69
2024/04/10 08:49:42;;;;;;;18.02;4.50;;;12.30;99.90;;;;;;5370856;26;20233;-68
2024/04/10 08:52:08;;;;;;;17.17;5.15;;;12.40;99.90;;;;;;5366702;26;20722;-67
2024/04/10 08:54:37;;;;;;;30.25;5.53;;;12.50;99.90;;;;;;5367934;26;20337;-67
2024/04/10 08:57:06;;;;;;;18.80;4.75;;;12.60;99.90;;;;;;5364286;26;20246;-68
2024/04/10 08:59:33;;;;;;;15.90;4.90;;;12.70;99.90;;;;;;5373760;26;20233;-69
2024/04/10 09:02:01;;;;;;;13.23;3.70;;;12.80;99.90;;;;;;5369595;26;20304;-68
2024/04/10 09:04:27;;;;;;;13.23;3.78;;;12.90;99.90;;;;;;5361689;26;21052;-66
2024/04/10 09:07:03;;;;;;;14.10;3.75;;;12.80;99.90;;;;;;5363054;26;20230;-68
2024/04/10 09:09:29;;;;;;;10.38;3.40;;;12.70;99.90;;;;;;5365996;26;20240;-68
2024/04/10 09:11:55;;;;;;;13.73;3.28;;;12.70;99.90;;;;;;5362264;26;20810;-69
2024/04/10 09:14:20;;;;;;;12.50;3.70;;;12.70;99.90;;;;;;5370019;26;20382;-68
2024/04/10 09:16:46;;;;;;;12.07;3.58;;;12.80;99.90;;;;;;5367413;26;20237;-68
2024/04/10 09:19:16;;;;;;;11.45;3.40;;;12.90;99.90;;;;;;5365659;26;20233;-67
2024/04/10 09:21:54;;;;;;;11.82;3.50;;;13.00;99.90;;;;;;5371061;26;20737;-68
2024/04/10 09:24:25;;;;;;;11.23;2.95;;;13.10;99.90;;;;;;5370504;26;20268;-69
2024/04/10 09:26:51;;;;;;;15.63;3.35;;;13.20;99.90;;;;;;5366323;26;20716;-67
2024/04/10 09:29:19;;;;;;;9.02;3.10;;;13.30;99.90;;;;;;5366035;26;20291;-66
2024/04/10 09:31:48;;;;;;;8.75;3.17;;;13.50;99.90;;;;;;5366400;26;20253;-67
2024/04/10 09:34:19;;;;;;;10.95;3.10;;;13.60;99.90;;;;;;5366208;26;20265;-67
2024/04/10 09:36:46;;;;;;;11.75;3.20;;;13.80;99.90;;;;;;5366700;26;20229;-67
2024/04/10 09:39:12;;;;;;;13.10;3.38;;;13.90;99.90;;;;;;5364718;26;20225;-67
2024/04/10 09:41:41;;;;;;;9.60;2.90;;;14.10;99.90;;;;;;5366043;26;20403;-67
2024/04/10 09:44:10;;;;;;;15.05;3.50;;;14.10;99.90;;;;;;5374452;26;20229;-67
2024/04/10 09:46:37;;;;;;;14.10;3.08;;;14.20;99.90;;;;;;5366215;26;20732;-67
2024/04/10 09:49:12;;;;;;;14.48;3.50;;;14.20;99.90;;;;;;5365705;26;20245;-67
2024/04/10 09:51:39;;;;;;;13.70;3.33;;;14.20;99.90;;;;;;5370644;26;20505;-69
2024/04/10 09:54:09;;;;;;;11.93;3.20;;;14.30;99.90;;;;;;5367143;26;22727;-67
2024/04/10 09:56:43;;;;;;;12.65;3.58;;;14.20;99.90;;;;;;5361704;26;20731;-68
2024/04/10 09:59:13;;;;;;;16.90;3.40;;;14.20;99.90;;;;;;5350103;26;20238;-67
2024/04/10 10:01:38;;;;;;;12.40;3.20;;;14.30;99.90;;;;;;5351744;26;20281;-66
2024/04/10 10:04:05;;;;;;;18.20;4.25;;;14.30;99.90;;;;;;5348938;26;20289;-68
2024/04/10 10:06:34;;;;;;;15.27;3.53;;;14.40;99.90;;;;;;5349265;26;20770;-67
2024/04/10 10:09:00;;;;;;;12.63;3.28;;;14.40;99.90;;;;;;5353845;26;20297;-69
2024/04/10 10:11:27;;;;;;;9.27;3.10;;;14.50;99.90;;;;;;5348320;26;20556;-67
2024/04/10 10:14:02;;;;;;;15.93;4.10;;;14.50;99.90;;;;;;5353215;26;20748;-68
2024/04/10 10:16:28;;;;;;;17.00;3.80;;;14.60;99.90;;;;;;5352336;26;20237;-67
2024/04/10 10:18:55;;;;;;;9.93;3.40;;;14.50;99.90;;;;;;5351225;26;20565;-67
2024/04/10 10:21:24;;;;;;;13.45;3.60;;;14.60;99.90;;;;;;5354071;26;20352;-67
2024/04/10 10:24:05;;;;;;;15.73;3.35;;;14.60;99.90;;;;;;5346977;26;20272;-69
2024/04/10 10:26:31;;;;;;;11.93;3.40;;;14.60;99.90;;;;;;5350908;26;22146;-66
2024/04/10 10:29:05;;;;;;;15.35;3.30;;;14.60;99.90;;;;;;5407200;26;20222;-68
2024/04/10 10:31:31;;;;;;;13.07;3.55;;;14.50;99.90;;;;;;5354588;26;20234;-68
2024/04/10 10:34:05;;;;;;;14.60;3.55;;;14.40;99.90;;;;;;5351991;26;20249;-67
2024/04/10 10:36:32;;;;;;;15.27;3.63;;;14.30;99.90;;;;;;5355565;26;20865;-69
2024/04/10 10:39:05;;;;;;;16.13;3.78;;;14.20;99.90;;;;;;5353145;26;20233;-68
2024/04/10 10:41:30;;;;;;;13.60;3.47;;;14.10;99.90;;;;;;5353464;26;20301;-68
2024/04/10 10:44:00;;;;;;;17.58;3.55;;;14.00;99.90;;;;;;5346554;26;20230;-68
2024/04/10 10:46:26;;;;;;;16.50;3.58;;;14.00;99.90;;;;;;5351188;26;20246;-69
2024/04/10 10:48:52;;;;;;;14.45;4.65;;;14.00;99.90;;;;;;5356365;26;20671;-68
2024/04/10 10:51:18;;;;;;;17.25;3.50;;;14.10;99.90;;;;;;5410403;26;20243;-68
2024/04/10 10:53:49;;;;;;;11.18;3.03;;;14.30;99.90;;;;;;5354126;26;20277;-69
2024/04/10 10:56:35;;;;;;;13.25;3.05;;;14.40;99.90;;;;;;5359399;26;20231;-68
2024/04/10 10:59:10;;;;;;;9.55;3.00;;;14.40;99.90;;;;;;5349290;26;20236;-68
2024/04/10 11:01:36;;;;;;;9.45;2.83;;;14.30;99.90;;;;;;5348723;26;20608;-68
2024/04/10 11:04:15;;;;;;;13.30;2.97;;;14.30;99.90;;;;;;5363906;26;20245;-67
2024/04/10 11:06:41;;;;;;;15.30;3.15;;;14.30;99.90;;;;;;5347052;26;20368;-67
2024/04/10 11:09:09;;;;;;;13.60;3.20;;;14.30;99.90;;;;;;5352127;26;20239;-68
2024/04/10 11:11:41;;;;;;;12.60;2.83;;;14.30;99.90;;;;;;5350257;26;20237;-68
2024/04/10 11:14:13;;;;;;;13.93;2.92;;;14.30;99.90;;;;;;5351669;26;20703;-67
2024/04/10 11:16:40;;;;;;;14.40;3.13;;;14.40;99.90;;;;;;5352039;26;20234;-68
2024/04/10 11:19:07;;;;;;;14.75;3.35;;;14.60;99.90;;;;;;5348644;26;20234;-68
2024/04/10 11:21:33;;;;;;;10.05;2.78;;;14.70;99.90;;;;;;5351721;26;20233;-68
2024/04/10 11:23:59;;;;;;;13.63;3.20;;;14.80;99.90;;;;;;5353619;26;20340;-69
2024/04/10 11:26:25;;;;;;;14.25;3.50;;;14.70;99.90;;;;;;5348869;26;20229;-68
2024/04/10 11:28:55;;;;;;;12.45;3.38;;;14.80;99.90;;;;;;5351423;26;20333;-68
2024/04/10 11:31:21;;;;;;;12.10;2.50;;;14.80;99.90;;;;;;5358492;26;20294;-67
2024/04/10 11:33:47;;;;;;;9.13;2.40;;;14.80;99.90;;;;;;5352821;26;20231;-68
2024/04/10 11:36:13;;;;;;;6.93;2.70;;;14.90;99.90;;;;;;5352410;26;20292;-69
2024/04/10 11:38:39;;;;;;;8.43;2.58;;;15.00;99.90;;;;;;5353735;26;20239;-68
2024/04/10 11:41:09;;;;;;;11.30;2.83;;;15.10;99.90;;;;;;5353889;26;20229;-69
2024/04/10 11:43:34;;;;;;;14.52;3.22;;;15.20;99.90;;;;;;5350610;26;20609;-67
2024/04/10 11:46:02;;;;;;;15.07;3.25;;;15.40;99.90;;;;;;5344444;26;20301;-68
2024/04/10 11:48:28;;;;;;;12.43;3.03;;;15.20;99.90;;;;;;5350034;26;20338;-68
2024/04/10 11:50:56;;;;;;;8.40;2.38;;;15.20;99.90;;;;;;5344144;26;20786;-67
2024/04/10 11:53:22;;;;;;;13.48;3.10;;;15.00;99.90;;;;;;5353825;26;20251;-67
2024/04/10 11:55:48;;;;;;;16.65;2.88;;;14.90;99.90;;;;;;5349173;26;20241;-68
2024/04/10 11:58:14;;;;;;;11.70;3.00;;;14.80;99.90;;;;;;5354330;26;20619;-68
2024/04/10 12:00:40;;;;;;;14.15;3.10;;;14.80;99.90;;;;;;5351478;26;20237;-68
2024/04/10 12:03:05;;;;;;;13.60;3.03;;;14.80;99.90;;;;;;5347584;26;20615;-68
2024/04/10 12:05:31;;;;;;;13.80;3.20;;;14.90;99.90;;;;;;5351915;26;20286;-67
2024/04/10 12:07:57;;;;;;;12.93;2.70;;;15.10;99.90;;;;;;5352844;26;20330;-68
2024/04/10 12:10:23;;;;;;;17.30;3.03;;;15.20;99.90;;;;;;5349783;26;20246;-68
2024/04/10 12:12:49;;;;;;;14.20;2.58;;;15.40;99.90;;;;;;5351469;26;20234;-67
2024/04/10 12:15:15;;;;;;;11.77;2.97;;;15.60;99.90;;;;;;5350622;26;20593;-68
2024/04/10 12:17:40;;;;;;;8.63;2.30;;;15.80;99.90;;;;;;5352664;26;20596;-69
2024/04/10 12:20:06;;;;;;;9.82;2.67;;;15.90;99.90;;;;;;5347064;26;20281;-67
2024/04/10 12:22:32;;;;;;;12.43;2.67;;;16.10;99.90;;;;;;5348686;26;20670;-67
2024/04/10 12:24:58;;;;;;;14.57;2.88;;;16.30;99.90;;;;;;5408107;26;20249;-67
2024/04/10 12:27:25;;;;;;;10.70;2.47;;;16.40;99.90;;;;;;5413691;26;20304;-68
2024/04/10 12:29:51;;;;;;;9.98;2.20;;;16.50;99.30;;;;;;5347680;26;20252;-68
2024/04/10 12:32:17;;;;;;;7.60;2.50;;;16.60;98.10;;;;;;5357155;26;20225;-69
2024/04/10 12:34:42;;;;;;;10.80;2.97;;;16.70;98.10;;;;;;5377972;26;20242;-68
2024/04/10 12:39:53;;;;;;;9.70;2.70;;;16.60;97.00;;;;;;5355077;26;21296;-67
2024/04/10 12:42:19;;;;;;;13.88;3.17;;;16.50;96.60;;;;;;5347309;26;20250;-68
2024/04/10 12:44:45;;;;;;;13.15;2.65;;;16.30;97.40;;;;;;5342081;26;20345;-67
2024/04/10 12:47:10;;;;;;;13.57;2.60;;;16.20;98.20;;;;;;5344793;26;20242;-67